Time;durP1;ratioP1;P1;durP2;ratioP2;P2;SDS_P1;SDS_P2;PMS_P1;PMS_P2;Temp;Humidity;BMP_temperature;BMP_pressure;BME280_temperature;BME280_humidity;BME280_pressure;Samples;Min_cycle;Max_cycle;Signal;HPM_P1;HPM_P2
2022/11/27 00:00:20;;;;;;;12.77;6.47;;;;;;;;;;5060872;28;20028;-80
2022/11/27 00:02:46;;;;;;;12.70;6.47;;;;;;;;;;5060654;28;20032;-78
2022/11/27 00:05:11;;;;;;;17.40;6.40;;;;;;;;;;5060874;28;20049;-79
2022/11/27 00:07:36;;;;;;;22.67;8.65;;;;;;;;;;5060675;28;20023;-79
2022/11/27 00:10:02;;;;;;;16.80;7.63;;;;;;;;;;5060817;28;20017;-79
2022/11/27 00:12:27;;;;;;;18.73;8.85;;;;;;;;;;5060150;28;20037;-79
2022/11/27 00:14:53;;;;;;;17.40;8.55;;;;;;;;;;5060418;28;20025;-80
2022/11/27 00:17:18;;;;;;;18.20;6.35;;;;;;;;;;5060051;28;20084;-80
2022/11/27 00:19:43;;;;;;;13.88;6.55;;;;;;;;;;5060091;28;20088;-80
2022/11/27 00:22:08;;;;;;;13.68;6.45;;;;;;;;;;5060923;28;20029;-80
2022/11/27 00:24:34;;;;;;;21.30;7.22;;;;;;;;;;5059101;28;20032;-80
2022/11/27 00:26:59;;;;;;;16.40;6.20;;;;;;;;;;5061789;28;20037;-78
2022/11/27 00:29:27;;;;;;;19.67;6.50;;;;;;;;;;5062216;28;20044;-79
2022/11/27 00:31:53;;;;;;;14.52;6.70;;;;;;;;;;5063539;28;20021;-79
2022/11/27 00:34:18;;;;;;;14.20;6.63;;;;;;;;;;5063889;28;20029;-79
2022/11/27 00:36:44;;;;;;;14.93;6.40;;;;;;;;;;5062935;28;20027;-79
2022/11/27 00:39:09;;;;;;;13.15;6.05;;;;;;;;;;5063572;28;20028;-79
2022/11/27 00:41:34;;;;;;;14.48;6.00;;;;;;;;;;5064382;28;20108;-79
2022/11/27 00:44:00;;;;;;;13.30;6.15;;;;;;;;;;5063186;28;20029;-79
2022/11/27 00:46:28;;;;;;;15.27;7.07;;;;;;;;;;5063219;28;20020;-79
2022/11/27 00:48:53;;;;;;;13.60;6.60;;;;;;;;;;5063440;28;20025;-79
2022/11/27 00:51:20;;;;;;;13.80;6.10;;;;;;;;;;5062233;28;20123;-79
2022/11/27 00:53:46;;;;;;;16.55;6.75;;;;;;;;;;5063173;28;20481;-79
2022/11/27 00:56:17;;;;;;;14.43;6.40;;;;;;;;;;5061940;28;20060;-78
2022/11/27 00:58:43;;;;;;;13.73;5.78;;;;;;;;;;5063351;28;20425;-79
2022/11/27 01:01:16;;;;;;;13.32;6.40;;;;;;;;;;5060904;28;20170;-79
2022/11/27 01:03:41;;;;;;;14.77;6.25;;;;;;;;;;5062378;28;20025;-79
2022/11/27 01:06:06;;;;;;;13.70;6.18;;;;;;;;;;5062655;28;20124;-80
2022/11/27 01:08:33;;;;;;;16.70;6.63;;;;;;;;;;5062480;28;20060;-79
2022/11/27 01:10:58;;;;;;;15.18;6.07;;;;;;;;;;5061860;28;20040;-79
2022/11/27 01:13:30;;;;;;;11.85;6.35;;;;;;;;;;5063743;28;20021;-80
2022/11/27 01:15:59;;;;;;;14.95;5.63;;;;;;;;;;5062962;28;20032;-80
2022/11/27 01:18:25;;;;;;;14.98;5.93;;;;;;;;;;5061055;28;20050;-79
2022/11/27 01:20:54;;;;;;;13.93;6.10;;;;;;;;;;5062544;28;20036;-79
2022/11/27 01:23:20;;;;;;;14.68;6.55;;;;;;;;;;5062406;28;20359;-79
2022/11/27 01:25:46;;;;;;;17.98;6.70;;;;;;;;;;5061563;28;20027;-79
2022/11/27 01:28:11;;;;;;;15.77;6.28;;;;;;;;;;5060885;28;20449;-79
2022/11/27 01:30:37;;;;;;;12.38;5.68;;;;;;;;;;5061445;28;20031;-80
2022/11/27 01:33:03;;;;;;;11.25;5.50;;;;;;;;;;5061665;28;20024;-79
2022/11/27 01:35:28;;;;;;;10.68;5.60;;;;;;;;;;5063302;28;20480;-79
2022/11/27 01:37:53;;;;;;;13.98;5.57;;;;;;;;;;5062784;28;20024;-79
2022/11/27 01:40:19;;;;;;;13.07;5.72;;;;;;;;;;5062158;28;20088;-79
2022/11/27 01:42:44;;;;;;;17.88;6.00;;;;;;;;;;5063098;28;20029;-80
2022/11/27 01:45:13;;;;;;;13.93;6.00;;;;;;;;;;5060369;28;20400;-79
2022/11/27 01:47:45;;;;;;;12.07;5.35;;;;;;;;;;5062495;28;20094;-79
2022/11/27 01:50:16;;;;;;;15.20;5.78;;;;;;;;;;5063013;28;20390;-79
2022/11/27 01:52:48;;;;;;;14.43;5.80;;;;;;;;;;5062245;28;20028;-79
2022/11/27 01:55:33;;;;;;;13.40;5.53;;;;;;;;;;5060690;28;20457;-79
2022/11/27 01:58:12;;;;;;;15.00;6.13;;;;;;;;;;5059819;28;20025;-79
2022/11/27 02:00:38;;;;;;;10.70;6.05;;;;;;;;;;5062241;28;20033;-79
2022/11/27 02:03:03;;;;;;;11.80;5.88;;;;;;;;;;5062158;28;20028;-79
2022/11/27 02:05:29;;;;;;;11.80;5.38;;;;;;;;;;5061782;28;20428;-79
2022/11/27 02:08:02;;;;;;;12.90;5.50;;;;;;;;;;5062208;28;20084;-79
2022/11/27 02:10:47;;;;;;;13.65;5.50;;;;;;;;;;5060254;28;20017;-79
2022/11/27 02:13:21;;;;;;;12.57;5.22;;;;;;;;;;5062092;28;20063;-80
2022/11/27 02:15:59;;;;;;;11.57;5.38;;;;;;;;;;5060523;28;20028;-81
2022/11/27 02:18:44;;;;;;;15.48;5.82;;;;;;;;;;5061305;28;20486;-79
2022/11/27 02:21:22;;;;;;;12.35;5.32;;;;;;;;;;5060302;28;20043;-79
2022/11/27 02:24:15;;;;;;;12.07;6.20;;;;;;;;;;5061400;28;20028;-79
2022/11/27 02:26:46;;;;;;;15.75;5.55;;;;;;;;;;5062101;28;20559;-79
2022/11/27 02:29:14;;;;;;;10.32;5.13;;;;;;;;;;5060877;28;20460;-79
2022/11/27 02:31:56;;;;;;;12.80;5.35;;;;;;;;;;5061527;28;20020;-79
2022/11/27 02:34:29;;;;;;;12.07;5.13;;;;;;;;;;5061486;28;20482;-79
2022/11/27 02:37:04;;;;;;;12.48;5.50;;;;;;;;;;5062034;28;20047;-79
2022/11/27 02:39:38;;;;;;;8.90;5.07;;;;;;;;;;5061336;28;20031;-79
2022/11/27 02:42:09;;;;;;;10.13;5.05;;;;;;;;;;5060672;28;20040;-79
2022/11/27 02:44:41;;;;;;;15.15;5.68;;;;;;;;;;5061792;28;20103;-79
2022/11/27 02:47:07;;;;;;;11.73;5.38;;;;;;;;;;5061054;28;20025;-79
2022/11/27 02:49:34;;;;;;;11.57;5.95;;;;;;;;;;5061066;28;20016;-79
2022/11/27 02:52:01;;;;;;;10.15;5.00;;;;;;;;;;5060294;28;20538;-79
2022/11/27 02:54:29;;;;;;;14.57;6.05;;;;;;;;;;5059842;28;20051;-79
2022/11/27 02:56:56;;;;;;;16.73;6.43;;;;;;;;;;5061221;28;20474;-79
2022/11/27 02:59:25;;;;;;;14.70;5.68;;;;;;;;;;5061535;28;20036;-79
2022/11/27 03:01:55;;;;;;;13.88;5.53;;;;;;;;;;5060546;28;20029;-79
2022/11/27 03:04:26;;;;;;;9.77;5.32;;;;;;;;;;5061564;28;20086;-78
2022/11/27 03:06:58;;;;;;;14.35;5.68;;;;;;;;;;5060974;28;20025;-79
2022/11/27 03:09:43;;;;;;;15.40;5.90;;;;;;;;;;5060639;28;20032;-79
2022/11/27 03:12:10;;;;;;;12.43;5.38;;;;;;;;;;5059217;28;20064;-79
2022/11/27 03:14:37;;;;;;;15.63;6.13;;;;;;;;;;5060065;28;20048;-80
2022/11/27 03:17:33;;;;;;;13.57;5.70;;;;;;;;;;5060934;28;20492;-79
2022/11/27 03:20:11;;;;;;;18.40;6.00;;;;;;;;;;5060829;28;20089;-79
2022/11/27 03:22:36;;;;;;;11.93;5.40;;;;;;;;;;5061067;28;20071;-79
2022/11/27 03:25:02;;;;;;;7.93;5.20;;;;;;;;;;5059288;28;20021;-79
2022/11/27 03:27:32;;;;;;;10.38;4.97;;;;;;;;;;5061088;28;20029;-79
2022/11/27 03:30:00;;;;;;;9.10;4.90;;;;;;;;;;5060344;28;20029;-78
2022/11/27 03:32:27;;;;;;;16.42;6.95;;;;;;;;;;5060585;28;20474;-78
2022/11/27 03:34:53;;;;;;;53.33;17.58;;;;;;;;;;5058459;28;20024;-78
2022/11/27 03:37:19;;;;;;;16.48;7.45;;;;;;;;;;5060847;28;20021;-79
2022/11/27 03:39:44;;;;;;;14.82;5.78;;;;;;;;;;5060233;28;20024;-78
2022/11/27 03:42:25;;;;;;;11.38;5.10;;;;;;;;;;5059962;28;20182;-79
2022/11/27 03:45:14;;;;;;;9.85;4.70;;;;;;;;;;5060283;28;20509;-78
2022/11/27 03:47:45;;;;;;;12.05;4.97;;;;;;;;;;5060037;28;20040;-79
2022/11/27 03:50:19;;;;;;;10.52;5.25;;;;;;;;;;5059370;28;20075;-79
2022/11/27 03:53:29;;;;;;;10.73;5.15;;;;;;;;;;5059570;28;20040;-80
2022/11/27 03:56:16;;;;;;;11.90;5.18;;;;;;;;;;5057644;28;20040;-79
2022/11/27 03:58:54;;;;;;;12.63;4.80;;;;;;;;;;5061168;28;20412;-80
2022/11/27 04:01:23;;;;;;;12.48;5.38;;;;;;;;;;5062411;28;20055;-79
2022/11/27 04:03:48;;;;;;;11.27;6.03;;;;;;;;;;5063932;28;20032;-80
2022/11/27 04:06:13;;;;;;;15.45;6.45;;;;;;;;;;5063889;28;20028;-80
2022/11/27 04:08:39;;;;;;;13.32;6.22;;;;;;;;;;5064255;28;20029;-80
2022/11/27 04:11:04;;;;;;;12.75;7.18;;;;;;;;;;5065497;28;20060;-80
2022/11/27 04:13:29;;;;;;;18.48;7.03;;;;;;;;;;5065092;28;20025;-80
2022/11/27 04:15:55;;;;;;;15.88;6.43;;;;;;;;;;5065164;28;20043;-80
2022/11/27 04:18:20;;;;;;;13.07;6.53;;;;;;;;;;5065593;28;20036;-79
2022/11/27 04:20:45;;;;;;;12.05;6.47;;;;;;;;;;5064152;28;20078;-80
2022/11/27 04:23:10;;;;;;;13.55;6.57;;;;;;;;;;5065861;28;20099;-80
2022/11/27 04:25:36;;;;;;;13.70;5.47;;;;;;;;;;5064193;28;20028;-79
2022/11/27 04:28:01;;;;;;;11.50;5.57;;;;;;;;;;5063258;28;20021;-79
2022/11/27 04:30:26;;;;;;;12.38;6.30;;;;;;;;;;5063422;28;20017;-79
2022/11/27 04:32:52;;;;;;;12.25;5.72;;;;;;;;;;5064305;28;20017;-79
2022/11/27 04:35:17;;;;;;;12.20;5.65;;;;;;;;;;5062682;28;20021;-79
2022/11/27 04:37:42;;;;;;;11.38;5.57;;;;;;;;;;5064256;28;20033;-79
2022/11/27 04:40:08;;;;;;;9.95;5.20;;;;;;;;;;5063885;28;20428;-80
2022/11/27 04:42:33;;;;;;;13.10;5.93;;;;;;;;;;5065304;28;20448;-81
2022/11/27 04:44:58;;;;;;;11.07;5.55;;;;;;;;;;5064841;28;20021;-79
2022/11/27 04:47:25;;;;;;;9.07;5.25;;;;;;;;;;5064773;28;20021;-79
2022/11/27 04:49:50;;;;;;;13.90;5.68;;;;;;;;;;5064303;28;20078;-79
2022/11/27 04:52:15;;;;;;;12.15;5.40;;;;;;;;;;5062597;28;20103;-79
2022/11/27 04:54:40;;;;;;;8.88;4.75;;;;;;;;;;5064230;28;20051;-79
2022/11/27 04:57:06;;;;;;;11.95;5.70;;;;;;;;;;5063621;28;20063;-80
2022/11/27 04:59:31;;;;;;;14.13;5.20;;;;;;;;;;5064897;28;20109;-80
2022/11/27 05:01:57;;;;;;;11.38;5.10;;;;;;;;;;5065355;28;20402;-79
2022/11/27 05:04:23;;;;;;;16.27;5.18;;;;;;;;;;5064781;28;20025;-79
2022/11/27 05:06:48;;;;;;;21.45;5.03;;;;;;;;;;5062342;28;20031;-79
2022/11/27 05:09:16;;;;;;;10.55;4.68;;;;;;;;;;5062211;28;20118;-80
2022/11/27 05:11:41;;;;;;;9.32;4.45;;;;;;;;;;5062738;28;20032;-79
2022/11/27 05:14:19;;;;;;;19.55;5.20;;;;;;;;;;5064098;28;20021;-79
2022/11/27 05:16:50;;;;;;;15.88;4.90;;;;;;;;;;5061978;28;20535;-79
2022/11/27 05:19:17;;;;;;;16.92;4.93;;;;;;;;;;5061202;28;20100;-79
2022/11/27 05:21:43;;;;;;;18.67;5.03;;;;;;;;;;5063516;28;20386;-79
2022/11/27 05:24:10;;;;;;;10.05;3.90;;;;;;;;;;5061625;28;20027;-80
2022/11/27 05:26:36;;;;;;;7.00;4.35;;;;;;;;;;5063728;28;20051;-79
2022/11/27 05:29:01;;;;;;;9.23;4.70;;;;;;;;;;5063165;28;20024;-79
2022/11/27 05:31:27;;;;;;;17.17;4.72;;;;;;;;;;5061756;28;20025;-79
2022/11/27 05:33:52;;;;;;;10.05;4.53;;;;;;;;;;5063112;28;20036;-79
2022/11/27 05:36:17;;;;;;;30.77;4.68;;;;;;;;;;5062273;28;20107;-80
2022/11/27 05:38:43;;;;;;;13.38;4.10;;;;;;;;;;5063007;28;20428;-80
2022/11/27 05:41:08;;;;;;;12.18;4.40;;;;;;;;;;5060787;28;20037;-79
2022/11/27 05:43:33;;;;;;;18.77;4.28;;;;;;;;;;5061582;28;20047;-80
2022/11/27 05:46:03;;;;;;;7.53;4.22;;;;;;;;;;5061394;28;20470;-80
2022/11/27 05:48:29;;;;;;;15.35;4.38;;;;;;;;;;5061604;28;20096;-80
2022/11/27 05:50:54;;;;;;;16.55;4.53;;;;;;;;;;5062539;28;20088;-80
2022/11/27 05:53:19;;;;;;;24.42;4.68;;;;;;;;;;5060789;28;20033;-79
2022/11/27 05:55:44;;;;;;;17.45;5.53;;;;;;;;;;5062039;28;20025;-79
2022/11/27 05:58:10;;;;;;;19.17;4.57;;;;;;;;;;5062333;28;20036;-80
2022/11/27 06:00:35;;;;;;;23.77;4.22;;;;;;;;;;5062062;28;20044;-79
2022/11/27 06:03:00;;;;;;;42.20;4.38;;;;;;;;;;5061536;28;20500;-80
2022/11/27 06:05:25;;;;;;;32.08;4.07;;;;;;;;;;5060363;28;20510;-80
2022/11/27 06:07:51;;;;;;;26.33;4.50;;;;;;;;;;5061531;28;20427;-79
2022/11/27 06:10:16;;;;;;;11.93;4.68;;;;;;;;;;5061557;28;20025;-78
2022/11/27 06:12:41;;;;;;;28.77;4.53;;;;;;;;;;5060636;28;20086;-80
2022/11/27 06:15:07;;;;;;;22.33;4.20;;;;;;;;;;5059911;28;20029;-79
2022/11/27 06:17:32;;;;;;;19.10;5.40;;;;;;;;;;5061736;28;20025;-80
2022/11/27 06:19:57;;;;;;;22.50;4.53;;;;;;;;;;5059588;28;20029;-79
2022/11/27 06:22:22;;;;;;;12.95;4.95;;;;;;;;;;5059787;28;20051;-79
2022/11/27 06:24:48;;;;;;;8.75;4.82;;;;;;;;;;5060988;28;20025;-78
2022/11/27 06:27:13;;;;;;;9.23;4.82;;;;;;;;;;5062323;28;20017;-80
2022/11/27 06:29:38;;;;;;;7.93;4.55;;;;;;;;;;5061866;28;20032;-80
2022/11/27 06:32:05;;;;;;;13.85;4.20;;;;;;;;;;5060909;28;20375;-80
2022/11/27 06:34:30;;;;;;;11.68;4.28;;;;;;;;;;5060955;28;20501;-79
2022/11/27 06:36:55;;;;;;;10.05;4.47;;;;;;;;;;5061588;28;20023;-80
2022/11/27 06:39:21;;;;;;;20.05;4.63;;;;;;;;;;5061304;28;20027;-78
2022/11/27 06:41:46;;;;;;;6.78;3.85;;;;;;;;;;5060909;28;20454;-78
2022/11/27 06:44:11;;;;;;;21.35;4.18;;;;;;;;;;5061406;28;20028;-79
2022/11/27 06:46:37;;;;;;;10.85;4.00;;;;;;;;;;5060608;28;20028;-80
2022/11/27 06:49:02;;;;;;;10.20;4.40;;;;;;;;;;5062030;28;20076;-79
2022/11/27 06:51:30;;;;;;;9.23;4.70;;;;;;;;;;5060513;28;20055;-80
2022/11/27 06:53:57;;;;;;;14.02;4.78;;;;;;;;;;5061860;28;20474;-78
2022/11/27 06:56:25;;;;;;;16.52;4.72;;;;;;;;;;5061417;28;20127;-79
2022/11/27 06:58:54;;;;;;;9.05;4.82;;;;;;;;;;5061275;28;20016;-78
2022/11/27 07:01:21;;;;;;;9.90;5.15;;;;;;;;;;5062028;28;20375;-79
2022/11/27 07:03:46;;;;;;;13.13;5.65;;;;;;;;;;5062179;28;20029;-79
2022/11/27 07:06:14;;;;;;;10.63;5.28;;;;;;;;;;5062236;28;20023;-79
2022/11/27 07:08:39;;;;;;;8.50;5.03;;;;;;;;;;5061884;28;20024;-79
2022/11/27 07:11:09;;;;;;;11.57;5.03;;;;;;;;;;5060288;28;20049;-79
2022/11/27 07:13:34;;;;;;;8.40;4.95;;;;;;;;;;5059831;28;20028;-80
2022/11/27 07:16:06;;;;;;;6.97;4.47;;;;;;;;;;5061770;28;20554;-79
2022/11/27 07:18:35;;;;;;;10.48;4.97;;;;;;;;;;5060716;28;20120;-79
2022/11/27 07:21:00;;;;;;;13.07;5.03;;;;;;;;;;5060023;28;20422;-79
2022/11/27 07:23:25;;;;;;;12.65;5.30;;;;;;;;;;5060587;28;20036;-79
2022/11/27 07:25:50;;;;;;;9.98;5.03;;;;;;;;;;5061159;28;20045;-78
2022/11/27 07:28:16;;;;;;;7.57;4.18;;;;;;;;;;5060674;28;20112;-80
2022/11/27 07:30:41;;;;;;;7.55;4.50;;;;;;;;;;5061592;28;20028;-80
2022/11/27 07:33:06;;;;;;;8.93;4.10;;;;;;;;;;5061343;28;20053;-79
2022/11/27 07:35:32;;;;;;;15.23;4.57;;;;;;;;;;5062912;28;20032;-79
2022/11/27 07:37:57;;;;;;;8.27;4.80;;;;;;;;;;5065177;28;20554;-80
2022/11/27 07:40:22;;;;;;;8.15;4.82;;;;;;;;;;5064413;28;20020;-80
2022/11/27 07:42:47;;;;;;;8.95;4.63;;;;;;;;;;5065469;28;20029;-80
2022/11/27 07:45:13;;;;;;;8.15;4.65;;;;;;;;;;5064415;28;20032;-81
2022/11/27 07:47:38;;;;;;;14.75;5.07;;;;;;;;;;5066193;28;20028;-80
2022/11/27 07:50:07;;;;;;;9.40;5.28;;;;;;;;;;5063149;28;20488;-80
2022/11/27 07:52:34;;;;;;;10.88;5.90;;;;;;;;;;5065876;28;20032;-80
2022/11/27 07:54:59;;;;;;;9.82;5.45;;;;;;;;;;5065216;28;20406;-80
2022/11/27 07:57:26;;;;;;;20.33;5.65;;;;;;;;;;5065567;28;20025;-79
2022/11/27 07:59:51;;;;;;;11.52;5.85;;;;;;;;;;5065413;28;20051;-79
2022/11/27 08:02:16;;;;;;;20.35;5.47;;;;;;;;;;5064500;28;20091;-80
2022/11/27 08:04:41;;;;;;;10.82;5.63;;;;;;;;;;5065375;28;20037;-80
2022/11/27 08:07:07;;;;;;;13.80;5.60;;;;;;;;;;5064793;28;20028;-80
2022/11/27 08:09:32;;;;;;;18.58;6.70;;;;;;;;;;5064702;28;20088;-80
2022/11/27 08:11:57;;;;;;;17.70;6.32;;;;;;;;;;5065757;28;20417;-80
2022/11/27 08:14:22;;;;;;;12.57;6.47;;;;;;;;;;5064666;28;20104;-80
2022/11/27 08:16:48;;;;;;;12.68;6.18;;;;;;;;;;5065897;28;20033;-79
2022/11/27 08:19:13;;;;;;;14.73;6.70;;;;;;;;;;5063838;28;20430;-78
2022/11/27 08:21:38;;;;;;;20.98;6.93;;;;;;;;;;5065196;28;20033;-79
2022/11/27 08:24:04;;;;;;;16.92;6.72;;;;;;;;;;5064481;28;20028;-79
2022/11/27 08:26:29;;;;;;;13.68;6.93;;;;;;;;;;5064173;28;20482;-79
2022/11/27 08:28:55;;;;;;;14.77;7.25;;;;;;;;;;5063943;28;20381;-79
2022/11/27 08:31:21;;;;;;;15.63;7.35;;;;;;;;;;5062868;28;20021;-79
2022/11/27 08:33:46;;;;;;;15.75;7.47;;;;;;;;;;5065447;28;20025;-79
2022/11/27 08:36:12;;;;;;;15.85;7.55;;;;;;;;;;5065615;28;20444;-80
2022/11/27 08:38:38;;;;;;;13.98;6.90;;;;;;;;;;5068097;28;20032;-80
2022/11/27 08:41:05;;;;;;;13.48;7.45;;;;;;;;;;5068507;28;20049;-80
2022/11/27 08:43:31;;;;;;;12.75;6.43;;;;;;;;;;5066788;28;20048;-80
2022/11/27 08:45:57;;;;;;;16.85;8.15;;;;;;;;;;5067404;28;20485;-80
2022/11/27 08:48:24;;;;;;;17.80;8.52;;;;;;;;;;5066192;28;20499;-80
2022/11/27 08:50:50;;;;;;;15.80;7.60;;;;;;;;;;5067447;28;20478;-79
2022/11/27 08:53:16;;;;;;;19.02;8.25;;;;;;;;;;5068283;28;20026;-79
2022/11/27 08:55:42;;;;;;;15.52;8.07;;;;;;;;;;5068451;28;20029;-79
2022/11/27 08:58:07;;;;;;;11.80;6.63;;;;;;;;;;5066267;28;20401;-81
2022/11/27 09:00:34;;;;;;;14.90;7.30;;;;;;;;;;5066490;28;20017;-79
2022/11/27 09:03:00;;;;;;;16.38;7.95;;;;;;;;;;5067194;28;20067;-79
2022/11/27 09:05:26;;;;;;;14.65;7.85;;;;;;;;;;5068118;28;20115;-79
2022/11/27 09:07:52;;;;;;;16.58;8.13;;;;;;;;;;5067296;28;20031;-79
2022/11/27 09:10:17;;;;;;;15.95;9.27;;;;;;;;;;5065700;28;20085;-80
2022/11/27 09:12:45;;;;;;;17.73;9.73;;;;;;;;;;5067963;28;20017;-81
2022/11/27 09:15:11;;;;;;;18.73;9.70;;;;;;;;;;5067023;28;20533;-80
2022/11/27 09:17:37;;;;;;;18.35;9.10;;;;;;;;;;5068065;28;20163;-80
2022/11/27 09:20:04;;;;;;;18.83;8.98;;;;;;;;;;5067080;28;20418;-79
2022/11/27 09:22:29;;;;;;;18.83;9.68;;;;;;;;;;5067888;28;20059;-79
2022/11/27 09:24:55;;;;;;;18.40;9.35;;;;;;;;;;5066778;28;20016;-80
2022/11/27 09:27:20;;;;;;;21.23;9.70;;;;;;;;;;5067550;28;20021;-79
2022/11/27 09:29:45;;;;;;;29.50;13.00;;;;;;;;;;5067630;28;20024;-80
2022/11/27 09:32:10;;;;;;;18.83;8.93;;;;;;;;;;5066565;28;20032;-80
2022/11/27 09:34:36;;;;;;;17.70;9.32;;;;;;;;;;5066947;28;20047;-81
2022/11/27 09:37:03;;;;;;;24.88;9.80;;;;;;;;;;5067007;28;20021;-80
2022/11/27 09:39:32;;;;;;;17.50;9.43;;;;;;;;;;5065129;28;20098;-79
2022/11/27 09:42:00;;;;;;;16.38;8.93;;;;;;;;;;5065256;28;20029;-80
2022/11/27 09:44:47;;;;;;;18.42;9.50;;;;;;;;;;5067021;28;20024;-80
2022/11/27 09:47:51;;;;;;;19.40;9.38;;;;;;;;;;5067016;28;20020;-81
2022/11/27 09:50:23;;;;;;;18.08;9.23;;;;;;;;;;5065468;28;20063;-79
2022/11/27 09:53:14;;;;;;;19.05;9.73;;;;;;;;;;5066992;28;20053;-80
2022/11/27 09:55:44;;;;;;;18.65;9.45;;;;;;;;;;5065784;28;20025;-80
2022/11/27 09:58:25;;;;;;;24.90;10.43;;;;;;;;;;5065157;28;20112;-79
2022/11/27 10:00:50;;;;;;;21.35;9.75;;;;;;;;;;5066321;28;20028;-79
2022/11/27 10:03:21;;;;;;;22.65;10.32;;;;;;;;;;5066105;28;20025;-80
2022/11/27 10:05:50;;;;;;;18.13;8.73;;;;;;;;;;5065579;28;20025;-80
2022/11/27 10:08:31;;;;;;;17.02;8.73;;;;;;;;;;5064756;28;20020;-80
2022/11/27 10:11:27;;;;;;;19.25;8.25;;;;;;;;;;5066634;28;20020;-80
2022/11/27 10:14:08;;;;;;;19.08;8.93;;;;;;;;;;5065623;28;20028;-80
2022/11/27 10:16:43;;;;;;;13.85;7.45;;;;;;;;;;5064775;28;20029;-80
2022/11/27 10:19:31;;;;;;;11.88;5.85;;;;;;;;;;5065468;28;20099;-80
2022/11/27 10:22:01;;;;;;;14.70;5.22;;;;;;;;;;5065070;28;20028;-79
2022/11/27 10:24:37;;;;;;;11.23;4.90;;;;;;;;;;5066095;28;20063;-80
2022/11/27 10:27:15;;;;;;;7.80;3.60;;;;;;;;;;5065243;28;20481;-80
2022/11/27 10:29:44;;;;;;;11.73;5.10;;;;;;;;;;5066211;28;20032;-80
2022/11/27 10:32:19;;;;;;;9.65;4.75;;;;;;;;;;5065768;28;20029;-80
2022/11/27 10:34:53;;;;;;;11.55;3.95;;;;;;;;;;5065962;28;20032;-79
2022/11/27 10:37:24;;;;;;;11.55;4.15;;;;;;;;;;5065456;28;20442;-80
2022/11/27 10:39:53;;;;;;;8.70;3.90;;;;;;;;;;5065157;28;20068;-80
2022/11/27 10:42:31;;;;;;;8.70;3.70;;;;;;;;;;5062278;28;20029;-78
2022/11/27 10:45:01;;;;;;;11.02;4.10;;;;;;;;;;5071661;28;20055;-79
2022/11/27 10:47:27;;;;;;;8.02;3.80;;;;;;;;;;5071921;28;20041;-79
2022/11/27 10:49:53;;;;;;;7.20;3.60;;;;;;;;;;5070038;28;20021;-80
2022/11/27 10:52:19;;;;;;;8.57;3.95;;;;;;;;;;5058430;28;20051;-79
2022/11/27 10:54:51;;;;;;;9.38;3.28;;;;;;;;;;5059947;28;20036;-80
2022/11/27 10:57:29;;;;;;;7.03;3.42;;;;;;;;;;5058278;28;20025;-79
2022/11/27 11:00:33;;;;;;;9.75;3.50;;;;;;;;;;5058651;28;20016;-79
2022/11/27 11:03:00;;;;;;;8.65;3.25;;;;;;;;;;5047395;28;20041;-79
2022/11/27 11:05:27;;;;;;;9.73;3.63;;;;;;;;;;5060104;28;20031;-80
2022/11/27 11:07:59;;;;;;;6.25;2.63;;;;;;;;;;5056762;28;20033;-79
2022/11/27 11:10:31;;;;;;;7.45;2.92;;;;;;;;;;5055951;28;20031;-80
2022/11/27 11:13:27;;;;;;;6.68;3.28;;;;;;;;;;5059578;28;20107;-79
2022/11/27 11:16:17;;;;;;;9.43;3.28;;;;;;;;;;5057586;28;20033;-80
2022/11/27 11:18:48;;;;;;;5.68;2.58;;;;;;;;;;5058078;28;20044;-79
2022/11/27 11:21:27;;;;;;;5.18;2.70;;;;;;;;;;5059555;28;20063;-79
2022/11/27 11:23:58;;;;;;;6.18;2.80;;;;;;;;;;5059975;28;20032;-80
2022/11/27 11:26:26;;;;;;;8.23;2.67;;;;;;;;;;5060998;28;20374;-79
2022/11/27 11:28:54;;;;;;;13.35;2.80;;;;;;;;;;5062058;28;20035;-79
2022/11/27 11:31:26;;;;;;;8.75;2.67;;;;;;;;;;5062712;28;20029;-79
2022/11/27 11:33:56;;;;;;;8.20;3.13;;;;;;;;;;5061374;28;20031;-80
2022/11/27 11:36:22;;;;;;;13.02;6.10;;;;;;;;;;5060348;28;20048;-80
2022/11/27 11:38:48;;;;;;;6.68;2.42;;;;;;;;;;5060681;28;20025;-79
2022/11/27 11:41:16;;;;;;;5.88;2.72;;;;;;;;;;5060981;28;20025;-80
2022/11/27 11:44:00;;;;;;;5.80;1.85;;;;;;;;;;5060516;28;20025;-79
2022/11/27 11:46:32;;;;;;;6.27;2.60;;;;;;;;;;5062163;28;20047;-80
2022/11/27 11:49:05;;;;;;;5.53;2.80;;;;;;;;;;5063688;28;20060;-80
2022/11/27 11:51:58;;;;;;;11.50;3.28;;;;;;;;;;5062933;28;20149;-80
2022/11/27 11:54:42;;;;;;;10.13;5.70;;;;;;;;;;5062403;28;20455;-80
2022/11/27 11:57:49;;;;;;;8.43;2.80;;;;;;;;;;5065781;28;20035;-79
2022/11/27 12:00:21;;;;;;;7.93;2.88;;;;;;;;;;5053772;28;20040;-80
2022/11/27 12:03:22;;;;;;;8.05;3.95;;;;;;;;;;5059976;28;20025;-80
2022/11/27 12:06:06;;;;;;;6.97;3.60;;;;;;;;;;5059974;28;20033;-80
2022/11/27 12:08:43;;;;;;;7.72;3.40;;;;;;;;;;5061307;28;20486;-79
2022/11/27 12:11:15;;;;;;;6.18;2.65;;;;;;;;;;5059291;28;20104;-80
2022/11/27 12:13:50;;;;;;;7.57;3.22;;;;;;;;;;5060611;28;20021;-80
2022/11/27 12:16:31;;;;;;;7.65;2.75;;;;;;;;;;5059593;28;20033;-80
2022/11/27 12:19:44;;;;;;;9.82;2.88;;;;;;;;;;5058615;28;20037;-79
2022/11/27 12:22:47;;;;;;;7.68;2.88;;;;;;;;;;5058503;28;20065;-79
2022/11/27 12:25:36;;;;;;;7.78;2.88;;;;;;;;;;5064857;28;20058;-80
2022/11/27 12:28:17;;;;;;;6.95;2.58;;;;;;;;;;5065431;28;20056;-80
2022/11/27 12:31:09;;;;;;;6.85;2.90;;;;;;;;;;5062747;28;20143;-80
2022/11/27 12:34:02;;;;;;;8.40;4.28;;;;;;;;;;5063909;28;20067;-79
2022/11/27 12:36:59;;;;;;;9.57;2.70;;;;;;;;;;5063750;28;20025;-80
2022/11/27 12:39:35;;;;;;;7.32;3.05;;;;;;;;;;5061479;28;20052;-79
2022/11/27 12:42:30;;;;;;;5.63;2.65;;;;;;;;;;5063324;28;20025;-83
2022/11/27 12:45:06;;;;;;;5.65;2.83;;;;;;;;;;5063106;28;20124;-81
2022/11/27 12:47:42;;;;;;;9.38;3.30;;;;;;;;;;5063964;28;20375;-81
2022/11/27 12:50:22;;;;;;;6.80;3.20;;;;;;;;;;5063405;28;20482;-82
2022/11/27 12:52:57;;;;;;;7.70;2.90;;;;;;;;;;5062150;28;20032;-81
2022/11/27 12:55:27;;;;;;;7.63;3.65;;;;;;;;;;5063364;28;20102;-82
2022/11/27 12:58:04;;;;;;;5.93;2.58;;;;;;;;;;5062965;28;20031;-80
2022/11/27 13:00:34;;;;;;;8.60;2.70;;;;;;;;;;5063401;28;20100;-82
2022/11/27 13:03:03;;;;;;;5.68;2.75;;;;;;;;;;5062839;28;20478;-82
2022/11/27 13:05:43;;;;;;;5.85;2.50;;;;;;;;;;5061770;28;20523;-81
2022/11/27 13:08:19;;;;;;;7.95;2.83;;;;;;;;;;5061540;28;20031;-82
2022/11/27 13:10:55;;;;;;;6.10;2.40;;;;;;;;;;5063651;28;20021;-81
2022/11/27 13:13:39;;;;;;;6.22;2.25;;;;;;;;;;5064719;28;20021;-81
2022/11/27 13:16:07;;;;;;;4.78;2.38;;;;;;;;;;5065302;28;20028;-81
2022/11/27 13:18:40;;;;;;;4.95;2.78;;;;;;;;;;5063261;28;20382;-81
2022/11/27 13:21:13;;;;;;;6.95;2.85;;;;;;;;;;5061234;28;20489;-81
2022/11/27 13:23:38;;;;;;;3.50;1.80;;;;;;;;;;5063508;28;20033;-81
2022/11/27 13:26:10;;;;;;;6.88;2.40;;;;;;;;;;5062758;28;20039;-81
2022/11/27 13:28:47;;;;;;;7.45;3.08;;;;;;;;;;5062994;28;20025;-81
2022/11/27 13:31:23;;;;;;;5.25;2.63;;;;;;;;;;5060810;28;20021;-82
2022/11/27 13:33:50;;;;;;;5.20;2.65;;;;;;;;;;5062610;28;20028;-80
2022/11/27 13:36:25;;;;;;;7.68;2.33;;;;;;;;;;5061350;28;20032;-82
2022/11/27 13:38:58;;;;;;;7.78;2.70;;;;;;;;;;5063264;28;20033;-81
2022/11/27 13:41:40;;;;;;;8.40;2.75;;;;;;;;;;5064126;28;20493;-82
2022/11/27 13:44:26;;;;;;;3.63;1.85;;;;;;;;;;5064212;28;20059;-81
2022/11/27 13:46:54;;;;;;;10.73;5.38;;;;;;;;;;5061677;28;20092;-80
2022/11/27 13:49:29;;;;;;;9.23;4.80;;;;;;;;;;5061764;28;20052;-81
2022/11/27 13:52:14;;;;;;;6.55;3.25;;;;;;;;;;5061494;28;20486;-81
2022/11/27 13:54:51;;;;;;;13.50;3.10;;;;;;;;;;5059413;28;20032;-82
2022/11/27 13:57:19;;;;;;;4.13;2.58;;;;;;;;;;5059788;28;20052;-81
2022/11/27 13:59:59;;;;;;;5.68;2.50;;;;;;;;;;5061034;28;20082;-81
2022/11/27 14:02:37;;;;;;;6.18;2.95;;;;;;;;;;5061299;28;20425;-81
2022/11/27 14:05:03;;;;;;;6.22;2.22;;;;;;;;;;5061793;28;20039;-81
2022/11/27 14:07:36;;;;;;;5.80;2.38;;;;;;;;;;5060343;28;20104;-81
2022/11/27 14:10:12;;;;;;;11.52;3.00;;;;;;;;;;5060751;28;20111;-81
2022/11/27 14:12:40;;;;;;;6.88;3.22;;;;;;;;;;5060355;28;20455;-82
2022/11/27 14:15:10;;;;;;;9.23;3.10;;;;;;;;;;5059745;28;20096;-81
2022/11/27 14:17:41;;;;;;;5.47;2.90;;;;;;;;;;5061827;28;20032;-81
2022/11/27 14:20:10;;;;;;;4.55;3.10;;;;;;;;;;5061048;28;20044;-81
2022/11/27 14:22:44;;;;;;;6.78;3.17;;;;;;;;;;5060553;28;20032;-80
2022/11/27 14:25:24;;;;;;;7.95;2.75;;;;;;;;;;5061481;28;20020;-82
2022/11/27 14:27:57;;;;;;;5.47;3.13;;;;;;;;;;5061442;28;20025;-81
2022/11/27 14:30:33;;;;;;;6.95;2.75;;;;;;;;;;5061436;28;20024;-81
2022/11/27 14:32:58;;;;;;;7.57;3.10;;;;;;;;;;5059811;28;20029;-81
2022/11/27 14:35:26;;;;;;;8.00;3.75;;;;;;;;;;5060296;28;20050;-80
2022/11/27 14:37:51;;;;;;;7.25;2.88;;;;;;;;;;5059970;28;20029;-81
2022/11/27 14:40:25;;;;;;;9.15;3.67;;;;;;;;;;5060791;28;20497;-82
2022/11/27 14:42:50;;;;;;;7.75;3.50;;;;;;;;;;5059995;28;20143;-81
2022/11/27 14:45:19;;;;;;;10.80;3.25;;;;;;;;;;5060844;28;20060;-82
2022/11/27 14:47:53;;;;;;;7.80;4.05;;;;;;;;;;5058699;28;20033;-82
2022/11/27 14:50:20;;;;;;;9.20;4.22;;;;;;;;;;5060420;28;20112;-82
2022/11/27 14:52:53;;;;;;;9.95;3.88;;;;;;;;;;5059310;28;20075;-81